• Join FlightAware (Why Join?)
  • Login
  • US Flag 
08:08AM EDT


 

Airport Tracker/Info


-or-


 

Live Flight TrackerFlight Track Log ✈ USC108 ✈ 01-May-2013 ✈ KLCK - KJVY

Flight Track Log - Related Links

Times and Time Zones

All times are in EDT time to prevent confusion due to time zone crossing. See the USC108 flight status page for this flight to view local times or setup timezone preferences in your user account.

Time Position Orientation Groundspeed Altitude Reporting Facility
EDT Latitude Longitude Course Direction KTS MPH feet Rate Location/Type
11:11PM 39.8058 -82.9419 225° Southwest 132 152 1,000  Level Indianapolis Center
11:12PM 39.7828 -82.9719 225° Southwest 130 150 2,300 1,140 Climbing Indianapolis Center
11:13PM 39.7731 -82.9872 230° Southwest 127 146 2,700 840 Climbing Indianapolis Center
11:13PM 39.7614 -83.0075 233° Southwest 166 191 3,100 780 Climbing Indianapolis Center
11:14PM 39.7492 -83.0319 237° Southwest 138 159 3,500 780 Climbing Indianapolis Center
11:14PM 39.7369 -83.0589 239° Southwest 194 223 3,900 780 Climbing Indianapolis Center
11:15PM 39.7264 -83.0847 242° Southwest 155 178 4,300 660 Climbing Indianapolis Center
11:15PM 39.7147 -83.1078 237° Southwest 161 185 4,600 660 Climbing Indianapolis Center
11:16PM 39.7008 -83.1350 236° Southwest 163 188 5,000 660 Climbing Indianapolis Center
11:16PM 39.6883 -83.1589 236° Southwest 164 189 5,400 660 Climbing Indianapolis Center
11:17PM 39.6744 -83.1839 234° Southwest 164 189 5,700 540 Climbing Indianapolis Center
11:17PM 39.6611 -83.2156 241° Southwest 165 190 6,000 360 Climbing Indianapolis Center
11:18PM 39.6492 -83.2358 233° Southwest 167 192 6,100  Climbing Indianapolis Center
11:18PM 39.6394 -83.2589 241° Southwest 174 200 6,000 -120 Descending Indianapolis Center
11:19PM 39.6200 -83.2931 234° Southwest 181 208 6,000 60 Level Indianapolis Center
11:19PM 39.5978 -83.3406 239° Southwest 199 229 6,100  Climbing Indianapolis Center
11:20PM 39.5900 -83.3528 230° Southwest 193 222 6,000 -180 Descending Indianapolis Center
11:20PM 39.5758 -83.3839 239° Southwest 194 223 6,000  Level Indianapolis Center
11:21PM 39.5631 -83.4139 241° Southwest 193 222 6,000  Level Indianapolis Center
11:21PM 39.5531 -83.4408 244° Southwest 191 220 6,000  Level Indianapolis Center
11:22PM 39.5375 -83.4756 240° Southwest 192 221 6,000  Level Indianapolis Center
11:22PM 39.5256 -83.5022 240° Southwest 195 224 6,000  Level Indianapolis Center
11:23PM 39.5092 -83.5369 239° Southwest 194 223 6,000  Level Indianapolis Center
11:23PM 39.4931 -83.5742 241° Southwest 200 230 6,000  Level Indianapolis Center
11:24PM 39.4817 -83.5975 238° Southwest 194 223 6,000  Level Indianapolis Center
11:25PM 39.4553 -83.6592 241° Southwest 194 223 6,000 -60 Level Indianapolis Center
11:26PM 39.4283 -83.7208 241° Southwest 194 223 5,900 -60 Descending Indianapolis Center
11:27PM 39.4003 -83.7806 239° Southwest 194 223 5,900  Level Indianapolis Center
11:28PM 39.3714 -83.8406 238° Southwest 194 223 5,900  Level Indianapolis Center
11:29PM 39.3364 -83.9103 237° Southwest 196 226 5,900  Level Indianapolis Center
11:30PM 39.3058 -83.9689 236° Southwest 195 224 5,900  Level Indianapolis Center
11:31PM 39.2750 -84.0244 234° Southwest 192 221 5,900  Level Indianapolis Center
11:32PM 39.2419 -84.0797 232° Southwest 193 222 5,900  Level Indianapolis Center
11:33PM 39.2083 -84.1336 231° Southwest 193 222 5,900  Level Indianapolis Center
11:34PM 39.1758 -84.1883 233° Southwest 192 221 5,900  Level Indianapolis Center
11:35PM 39.1481 -84.2456 238° Southwest 188 216 5,900  Level Indianapolis Center
11:36PM 39.1211 -84.3044 239° Southwest 189 217 5,900  Level Indianapolis Center
11:37PM 39.0931 -84.3650 239° Southwest 194 223 5,900  Level Indianapolis Center
11:37PM 39.0833 -84.3833 236° Southwest 192 221 5,900  Level Cincinnati TRACON
11:38PM 39.0500 -84.4333 229° Southwest 190 219 5,900  Level Cincinnati TRACON
11:39PM 39.0167 -84.5000 237° Southwest 189 217 5,900  Level Cincinnati TRACON
11:40PM 39.0000 -84.5500 247° West 191 220 5,900  Level Cincinnati TRACON
11:41PM 38.9667 -84.6000 229° Southwest 191 220 5,900  Level Cincinnati TRACON
11:42PM 38.9333 -84.6500 229° Southwest 192 221 5,900  Level Cincinnati TRACON
11:43PM 38.9000 -84.7167 237° Southwest 190 219 5,900  Level Cincinnati TRACON
11:44PM 38.8833 -84.7667 247° West 190 219 5,900  Level Cincinnati TRACON
11:45PM 38.8492 -84.8175 229° Southwest 190 219 5,900  Level Indianapolis Center
11:46PM 38.8189 -84.8733 235° Southwest 188 216 5,900  Level Indianapolis Center
11:47PM 38.7897 -84.9319 237° Southwest 192 221 5,900  Level Indianapolis Center
11:48PM 38.7592 -84.9872 235° Southwest 189 217 5,900  Level Indianapolis Center
11:49PM 38.7300 -85.0447 237° Southwest 191 220 6,000  Climbing Indianapolis Center
11:50PM 38.6983 -85.1011 234° Southwest 193 222 5,900 -60 Descending Indianapolis Center
11:51PM 38.6686 -85.1569 236° Southwest 189 217 5,900  Level Indianapolis Center
11:52PM 38.6375 -85.2139 235° Southwest 192 221 5,900  Level Indianapolis Center
11:53PM 38.6081 -85.2686 235° Southwest 192 221 6,000  Climbing Indianapolis Center
11:54PM 38.5781 -85.3247 236° Southwest 193 222 5,900 -60 Descending Indianapolis Center
11:55PM 38.5483 -85.3819 236° Southwest 192 221 5,900 -300 Level Indianapolis Center
11:56PM 38.5144 -85.4389 233° Southwest 196 226 5,300 -660 Descending Indianapolis Center
11:57PM 38.4856 -85.5044 241° Southwest 208 239 4,600 -600 Descending Indianapolis Center
11:58PM 38.4547 -85.5794 242° Southwest 206 237 4,100 -540 Descending Indianapolis Center